createdAt,value
2023-04-12T00:02:15.518Z,61.30
2023-04-12T00:04:51.108Z,61.80
2023-04-12T00:07:25.329Z,64.50
2023-04-12T00:10:01.305Z,56.37
2023-04-12T00:12:35.010Z,61.17
2023-04-12T00:15:24.678Z,54.07
2023-04-12T00:17:58.101Z,56.80
2023-04-12T00:20:35.221Z,55.43
2023-04-12T00:23:08.733Z,48.67
2023-04-12T00:25:44.151Z,51.93
2023-04-12T00:28:17.839Z,50.50
2023-04-12T00:30:52.291Z,51.87
2023-04-12T00:33:26.517Z,50.13
2023-04-12T00:36:00.560Z,54.43
2023-04-12T00:38:39.803Z,50.33
2023-04-12T00:41:16.715Z,46.43
2023-04-12T00:43:53.233Z,45.58
2023-04-12T00:46:28.846Z,50.40
2023-04-12T00:49:22.168Z,50.28
2023-04-12T00:52:05.941Z,48.75
2023-04-12T00:54:57.478Z,49.43
2023-04-12T00:57:49.273Z,51.80
2023-04-12T01:00:23.785Z,46.70
2023-04-12T01:03:04.427Z,49.28
2023-04-12T01:05:48.224Z,45.25
2023-04-12T01:08:29.175Z,49.10
2023-04-12T01:11:13.139Z,48.92
2023-04-12T01:13:56.228Z,41.25
2023-04-12T01:16:42.011Z,41.30
2023-04-12T01:19:33.593Z,49.60
2023-04-12T01:22:20.119Z,40.33
2023-04-12T01:25:08.184Z,40.75
2023-04-12T01:27:46.951Z,44.00
2023-04-12T01:30:23.123Z,41.30
2023-04-12T01:32:57.292Z,44.20
2023-04-12T01:35:37.426Z,40.03
2023-04-12T01:38:12.243Z,42.88
2023-04-12T01:40:46.167Z,43.85
2023-04-12T01:43:21.429Z,50.05
2023-04-12T01:45:55.485Z,46.58
2023-04-12T01:48:28.776Z,44.47
2023-04-12T01:51:11.433Z,49.05
2023-04-12T01:53:59.068Z,43.63
2023-04-12T01:56:40.403Z,44.88
2023-04-12T01:59:18.194Z,45.40
2023-04-12T02:01:54.102Z,41.72
2023-04-12T02:04:29.446Z,42.30
2023-04-12T02:07:06.170Z,39.95
2023-04-12T02:09:57.103Z,37.53
2023-04-12T02:12:30.774Z,44.55
2023-04-12T02:15:09.847Z,50.90
2023-04-12T02:17:44.332Z,47.65
2023-04-12T02:20:19.630Z,43.90
2023-04-12T02:22:54.159Z,42.05
2023-04-12T02:25:30.624Z,47.90
2023-04-12T02:28:19.082Z,50.90
2023-04-12T02:30:59.656Z,41.28
2023-04-12T02:33:45.809Z,41.50
2023-04-12T02:36:20.219Z,40.22
2023-04-12T02:38:55.515Z,34.70
2023-04-12T02:41:30.555Z,33.72
2023-04-12T02:44:09.012Z,31.13
2023-04-12T02:46:48.320Z,30.25
2023-04-12T02:49:24.881Z,29.77
2023-04-12T02:51:59.432Z,31.10
2023-04-12T02:54:44.508Z,32.50
2023-04-12T02:57:23.083Z,35.50
2023-04-12T02:59:57.069Z,38.83
2023-04-12T03:02:54.940Z,38.67
2023-04-12T03:05:35.074Z,39.17
2023-04-12T03:08:09.371Z,46.20
2023-04-12T03:10:48.507Z,42.90
2023-04-12T03:13:21.931Z,44.20
2023-04-12T03:16:24.856Z,47.88
2023-04-12T03:19:11.859Z,43.55
2023-04-12T03:21:46.067Z,43.78
2023-04-12T03:24:20.287Z,44.83
2023-04-12T03:26:55.353Z,46.58
2023-04-12T03:29:32.818Z,38.95
2023-04-12T03:32:07.844Z,50.97
2023-04-12T03:34:45.120Z,40.42
2023-04-12T03:37:22.959Z,49.28
2023-04-12T03:40:11.948Z,47.45
2023-04-12T03:42:56.253Z,56.60
2023-04-12T03:45:31.121Z,44.70
2023-04-12T03:48:13.228Z,45.78
2023-04-12T03:50:56.105Z,54.63
2023-04-12T03:53:34.169Z,56.05
2023-04-12T03:56:11.882Z,50.15
2023-04-12T03:58:46.713Z,60.33
2023-04-12T04:01:30.691Z,60.50
2023-04-12T04:04:05.811Z,62.85
2023-04-12T04:06:42.594Z,57.67
2023-04-12T04:09:16.915Z,57.60
2023-04-12T04:11:51.842Z,56.90
2023-04-12T04:14:29.380Z,61.63
2023-04-12T04:17:06.336Z,59.05
2023-04-12T04:19:41.699Z,59.63
2023-04-12T04:22:17.224Z,61.97
2023-04-12T04:24:54.978Z,53.55
2023-04-12T04:27:35.996Z,45.28
2023-04-12T04:30:16.416Z,54.95
2023-04-12T04:32:54.253Z,53.15
2023-04-12T04:35:31.431Z,54.90
2023-04-12T04:38:27.973Z,52.60
2023-04-12T04:41:12.900Z,35.75
2023-04-12T04:43:57.852Z,39.58
2023-04-12T04:46:35.787Z,42.70
2023-04-12T04:49:11.316Z,43.40
2023-04-12T04:51:46.153Z,43.00
2023-04-12T04:54:22.019Z,45.42
2023-04-12T04:56:55.954Z,39.80
2023-04-12T04:59:33.358Z,43.00
2023-04-12T05:02:19.012Z,43.58
2023-04-12T05:04:56.137Z,38.25
2023-04-12T05:07:35.845Z,39.65
2023-04-12T05:10:15.561Z,26.95
2023-04-12T05:12:54.083Z,20.60
2023-04-12T05:15:32.005Z,20.85
2023-04-12T05:18:10.598Z,25.48
2023-04-12T05:20:48.173Z,20.70
2023-04-12T05:23:24.309Z,23.50
2023-04-12T05:26:01.624Z,27.73
2023-04-12T05:28:36.763Z,32.72
2023-04-12T05:31:11.835Z,26.75
2023-04-12T05:33:53.291Z,27.42
2023-04-12T05:36:32.909Z,28.98
2023-04-12T05:39:09.980Z,26.35
2023-04-12T05:42:02.632Z,29.52
2023-04-12T05:44:45.823Z,24.20
2023-04-12T05:47:22.411Z,26.67
2023-04-12T05:49:58.184Z,23.60
2023-04-12T05:52:32.384Z,27.65
2023-04-12T05:55:06.917Z,28.75
2023-04-12T05:57:49.153Z,25.92
2023-04-12T06:00:35.333Z,31.52
2023-04-12T06:03:11.056Z,25.60
2023-04-12T06:05:47.959Z,23.98
2023-04-12T06:08:37.062Z,25.33
2023-04-12T06:11:13.712Z,19.92
2023-04-12T06:13:54.927Z,30.35
2023-04-12T06:16:29.774Z,28.58
2023-04-12T06:19:03.429Z,23.65
2023-04-12T06:21:38.740Z,26.40
2023-04-12T06:24:16.656Z,23.98
2023-04-12T06:26:52.499Z,20.63
2023-04-12T06:29:36.489Z,19.00
2023-04-12T06:32:10.701Z,21.70
2023-04-12T06:34:45.573Z,21.17
2023-04-12T06:37:21.239Z,23.60
2023-04-12T06:39:55.381Z,21.13
2023-04-12T06:42:31.676Z,24.75
2023-04-12T06:45:07.807Z,23.50
2023-04-12T06:47:43.928Z,19.27
2023-04-12T06:50:17.883Z,21.38
2023-04-12T06:52:51.342Z,26.58
2023-04-12T06:55:25.446Z,21.02
2023-04-12T06:58:00.265Z,19.77
2023-04-12T07:00:36.682Z,22.38
2023-04-12T07:03:11.233Z,20.67
2023-04-12T07:05:45.874Z,20.65
2023-04-12T07:08:21.568Z,19.27
2023-04-12T07:11:03.983Z,20.38
2023-04-12T07:13:48.696Z,20.25
2023-04-12T07:16:24.326Z,16.17
2023-04-12T07:18:58.771Z,15.70
2023-04-12T07:21:36.482Z,20.48
2023-04-12T07:24:16.281Z,21.92
2023-04-12T07:26:52.581Z,18.23
2023-04-12T07:29:28.071Z,19.48
2023-04-12T07:32:04.502Z,19.73
2023-04-12T07:34:38.999Z,23.63
2023-04-12T07:37:25.380Z,22.30
2023-04-12T07:39:59.212Z,27.05
2023-04-12T07:42:32.717Z,18.60
2023-04-12T07:45:06.575Z,21.95
2023-04-12T07:47:44.405Z,28.35
2023-04-12T07:50:20.149Z,22.10
2023-04-12T07:52:55.097Z,20.88
2023-04-12T07:55:32.033Z,18.20
2023-04-12T07:58:06.461Z,19.40
2023-04-12T08:00:44.122Z,20.90
2023-04-12T08:03:35.310Z,18.17
2023-04-12T08:06:11.343Z,21.33
2023-04-12T08:08:46.147Z,16.80
2023-04-12T08:11:31.063Z,23.73
2023-04-12T08:14:05.488Z,22.20
2023-04-12T08:16:39.907Z,24.63
2023-04-12T08:19:15.677Z,20.63
2023-04-12T08:21:49.320Z,24.35
2023-04-12T08:24:23.360Z,23.40
2023-04-12T08:26:58.143Z,18.02
2023-04-12T08:29:33.831Z,16.02
2023-04-12T08:32:10.708Z,20.20
2023-04-12T08:34:47.222Z,18.00
2023-04-12T08:37:23.841Z,24.58
2023-04-12T08:39:58.002Z,21.27
2023-04-12T08:42:37.451Z,19.42
2023-04-12T08:45:13.488Z,19.92
2023-04-12T08:47:49.764Z,19.73
2023-04-12T08:50:36.140Z,22.58
2023-04-12T08:53:14.734Z,20.17
2023-04-12T08:55:51.520Z,21.38
2023-04-12T08:58:29.212Z,19.13
2023-04-12T09:01:15.925Z,19.73
2023-04-12T09:03:55.347Z,21.40
2023-04-12T09:06:33.201Z,23.80
2023-04-12T09:09:08.339Z,19.77
2023-04-12T09:11:42.209Z,17.20
2023-04-12T09:17:32.129Z,24.23
2023-04-12T09:20:06.830Z,26.50
2023-04-12T09:22:47.060Z,18.10
2023-04-12T09:25:21.248Z,19.93
2023-04-12T09:27:56.622Z,23.20
2023-04-12T09:30:30.266Z,23.67
2023-04-12T09:33:16.205Z,17.97
2023-04-12T09:35:50.111Z,23.63
2023-04-12T09:38:28.563Z,20.33
2023-04-12T09:41:20.759Z,19.47
2023-04-12T09:44:01.369Z,22.70
2023-04-12T09:46:37.145Z,22.03
2023-04-12T09:49:13.273Z,21.40
2023-04-12T09:51:50.040Z,22.10
2023-04-12T09:54:26.483Z,21.47
2023-04-12T09:57:00.204Z,19.43
2023-04-12T10:00:23.432Z,22.17
2023-04-12T10:02:59.976Z,21.57
2023-04-12T10:05:34.825Z,19.20
2023-04-12T10:08:11.741Z,41.77
2023-04-12T10:10:50.768Z,40.40
2023-04-12T10:13:28.828Z,44.37
2023-04-12T10:16:04.560Z,40.60
2023-04-12T10:18:41.325Z,41.50
2023-04-12T10:21:16.628Z,53.87
2023-04-12T10:23:50.497Z,49.73
2023-04-12T10:26:29.350Z,45.80
2023-04-12T10:29:28.103Z,53.93
2023-04-12T10:32:23.216Z,54.00
2023-04-12T10:35:02.068Z,55.03
2023-04-12T10:38:07.834Z,48.77
2023-04-12T10:40:43.496Z,48.87
2023-04-12T10:43:35.083Z,47.20
2023-04-12T10:46:10.115Z,52.67
2023-04-12T10:48:58.240Z,50.60
2023-04-12T10:51:34.669Z,47.40
2023-04-12T10:54:39.719Z,52.93
2023-04-12T10:57:58.206Z,61.27
2023-04-12T11:01:11.254Z,49.87
2023-04-12T11:04:17.392Z,51.80
2023-04-12T11:07:26.228Z,52.60
2023-04-12T11:10:24.410Z,48.87
2023-04-12T11:13:02.811Z,56.90
2023-04-12T11:15:40.866Z,55.07
2023-04-12T11:18:24.391Z,65.93
2023-04-12T11:20:58.518Z,53.67
2023-04-12T11:23:35.203Z,60.80
2023-04-12T11:26:12.320Z,63.43
2023-04-12T11:28:47.496Z,61.57
2023-04-12T11:31:35.638Z,60.73
2023-04-12T11:34:12.084Z,63.77
2023-04-12T11:36:58.586Z,69.20
2023-04-12T11:39:33.357Z,61.47
2023-04-12T11:42:09.906Z,68.10
2023-04-12T11:44:57.712Z,71.10
2023-04-12T11:47:38.042Z,73.17
2023-04-12T11:50:15.846Z,74.90
2023-04-12T11:52:49.897Z,72.93
2023-04-12T11:55:25.477Z,76.87
2023-04-12T11:58:07.011Z,79.40
2023-04-12T12:00:41.136Z,79.57
2023-04-12T12:03:18.685Z,67.97
2023-04-12T12:05:53.737Z,75.57
2023-04-12T12:08:29.742Z,81.23
2023-04-12T12:11:07.984Z,78.20
2023-04-12T12:14:15.485Z,80.40
2023-04-12T12:16:58.623Z,78.97
2023-04-12T12:19:44.716Z,81.00
2023-04-12T12:22:27.085Z,101.67
2023-04-12T12:25:13.147Z,92.43
2023-04-12T12:27:50.175Z,94.47
2023-04-12T12:30:25.451Z,87.13
2023-04-12T12:33:01.712Z,85.57
2023-04-12T12:35:40.641Z,96.70
2023-04-12T12:38:16.980Z,87.53
2023-04-12T12:40:56.952Z,87.00
2023-04-12T12:43:40.987Z,89.07
2023-04-12T12:46:15.012Z,90.77
2023-04-12T12:48:51.940Z,92.17
2023-04-12T12:51:28.414Z,94.80
2023-04-12T12:54:03.322Z,94.37
2023-04-12T12:56:37.457Z,92.90
2023-04-12T12:59:15.056Z,105.07
2023-04-12T13:01:52.088Z,105.53
2023-04-12T13:04:26.016Z,97.67
2023-04-12T13:07:04.954Z,95.00
2023-04-12T13:09:38.979Z,106.80
2023-04-12T13:12:13.709Z,100.63
2023-04-12T13:14:47.937Z,95.00
2023-04-12T13:17:35.917Z,102.83
2023-04-12T13:20:26.191Z,101.67
2023-04-12T13:23:06.775Z,105.53
2023-04-12T13:25:44.389Z,102.23
2023-04-12T13:28:21.539Z,99.80
2023-04-12T13:31:05.366Z,103.60
2023-04-12T13:33:39.808Z,95.47
2023-04-12T13:36:14.609Z,95.90
2023-04-12T13:38:55.743Z,100.33
2023-04-12T13:41:33.087Z,105.00
2023-04-12T13:44:18.847Z,108.57
2023-04-12T13:46:53.089Z,99.13
2023-04-12T13:49:32.674Z,100.50
2023-04-12T13:52:10.882Z,105.23
2023-04-12T13:54:51.126Z,106.83
2023-04-12T13:57:25.454Z,103.03
2023-04-12T13:59:58.884Z,110.37
2023-04-12T14:02:37.529Z,103.23
2023-04-12T14:05:14.178Z,112.87
2023-04-12T14:07:49.481Z,101.60
2023-04-12T14:10:31.115Z,103.43
2023-04-12T14:13:18.394Z,113.90
2023-04-12T14:16:01.480Z,108.13
2023-04-12T14:18:41.371Z,94.17
2023-04-12T14:21:18.509Z,92.57
2023-04-12T14:23:53.709Z,95.03
2023-04-12T14:26:29.867Z,88.57
2023-04-12T14:29:04.344Z,88.73
2023-04-12T14:34:27.904Z,93.47
2023-04-12T14:37:01.777Z,91.47
2023-04-12T14:39:42.220Z,97.97
2023-04-12T14:42:22.676Z,100.13
2023-04-12T14:45:00.087Z,97.40
2023-04-12T14:47:39.221Z,95.77
2023-04-12T14:50:13.546Z,105.50
2023-04-12T14:52:57.964Z,104.17
2023-04-12T14:55:35.147Z,101.17
2023-04-12T14:58:16.779Z,94.93
2023-04-12T15:00:51.533Z,91.60
2023-04-12T15:03:28.024Z,73.97
2023-04-12T15:06:04.781Z,72.00
2023-04-12T15:08:45.280Z,67.00
2023-04-12T15:11:23.538Z,70.37
2023-04-12T15:14:02.016Z,66.97
2023-04-12T15:16:37.926Z,74.23
2023-04-12T15:19:16.368Z,71.67
2023-04-12T15:21:55.165Z,64.60
2023-04-12T15:24:31.744Z,66.57
2023-04-12T15:27:08.728Z,63.60
2023-04-12T15:29:57.946Z,65.33
2023-04-12T15:32:43.119Z,71.83
2023-04-12T15:35:26.630Z,71.73
2023-04-12T15:38:02.350Z,66.77
2023-04-12T15:40:36.654Z,61.83
2023-04-12T15:43:10.888Z,66.07
2023-04-12T15:45:57.608Z,70.63
2023-04-12T15:48:31.966Z,70.60
2023-04-12T15:51:07.394Z,71.43
2023-04-12T15:53:44.105Z,69.33
2023-04-12T15:56:25.830Z,69.03
2023-04-12T15:59:00.523Z,68.23
2023-04-12T16:01:39.582Z,66.33
2023-04-12T16:04:15.334Z,64.67
2023-04-12T16:06:52.580Z,69.67
2023-04-12T16:09:27.253Z,65.73
2023-04-12T16:12:01.794Z,68.47
2023-04-12T16:14:36.048Z,73.33
2023-04-12T16:17:12.051Z,83.57
2023-04-12T16:19:45.949Z,90.90
2023-04-12T16:22:19.470Z,89.50
2023-04-12T16:24:56.503Z,87.07
2023-04-12T16:27:31.090Z,85.43
2023-04-12T16:30:05.503Z,90.87
2023-04-12T16:32:40.777Z,87.50
2023-04-12T16:35:15.113Z,79.57
2023-04-12T16:37:49.326Z,72.73
2023-04-12T16:40:24.088Z,76.63
2023-04-12T16:42:58.658Z,76.77
2023-04-12T16:45:32.716Z,76.17
2023-04-12T16:48:10.203Z,70.43
2023-04-12T16:50:46.389Z,69.40
2023-04-12T16:53:20.532Z,72.00
2023-04-12T16:55:58.062Z,66.93
2023-04-12T16:58:32.253Z,71.13
2023-04-12T17:01:05.599Z,67.10
2023-04-12T17:03:41.170Z,63.93
2023-04-12T17:06:17.255Z,68.43
2023-04-12T17:08:51.336Z,58.50
2023-04-12T17:11:25.620Z,58.93
2023-04-12T17:13:59.840Z,59.73
2023-04-12T17:16:34.041Z,63.00
2023-04-12T17:19:12.222Z,60.43
2023-04-12T17:21:49.432Z,60.13
2023-04-12T17:24:22.964Z,60.53
2023-04-12T17:26:57.742Z,60.63
2023-04-12T17:29:31.775Z,63.50
2023-04-12T17:32:06.187Z,63.70
2023-04-12T17:34:43.515Z,57.17
2023-04-12T17:37:20.493Z,59.63
2023-04-12T17:39:54.219Z,52.47
2023-04-12T17:42:27.970Z,53.43
2023-04-12T17:45:02.685Z,57.83
2023-04-12T17:47:36.279Z,62.40
2023-04-12T17:50:15.733Z,58.97
2023-04-12T17:52:49.378Z,62.17
2023-04-12T17:55:24.892Z,56.60
2023-04-12T17:57:58.506Z,50.77
2023-04-12T18:00:32.353Z,53.43
2023-04-12T18:03:05.622Z,51.33
2023-04-12T18:05:41.328Z,53.17
2023-04-12T18:08:16.404Z,52.07
2023-04-12T18:10:50.746Z,53.80
2023-04-12T18:13:24.377Z,51.07
2023-04-12T18:15:57.864Z,49.43
2023-04-12T18:18:34.245Z,51.40
2023-04-12T18:21:10.989Z,46.30
2023-04-12T18:23:44.368Z,53.63
2023-04-12T18:26:17.771Z,50.47
2023-04-12T18:28:51.080Z,47.90
2023-04-12T18:31:24.539Z,51.33
2023-04-12T18:33:58.090Z,52.60
2023-04-12T18:36:34.037Z,45.27
2023-04-12T18:39:08.184Z,54.13
2023-04-12T18:41:46.772Z,49.60
2023-04-12T18:44:21.582Z,50.53
2023-04-12T18:46:55.603Z,51.33
2023-04-12T18:49:29.227Z,48.43
2023-04-12T18:52:05.071Z,53.60
2023-04-12T18:54:38.576Z,49.63
2023-04-12T18:57:12.752Z,51.00
2023-04-12T18:59:49.351Z,49.80
2023-04-12T19:02:23.252Z,50.83
2023-04-12T19:05:00.366Z,52.90
2023-04-12T19:07:36.229Z,50.50
2023-04-12T19:10:11.664Z,53.80
2023-04-12T19:12:45.329Z,50.83
2023-04-12T19:15:20.582Z,55.03
2023-04-12T19:17:55.129Z,49.93
2023-04-12T19:20:29.249Z,51.03
2023-04-12T19:23:08.619Z,50.63
2023-04-12T19:25:45.397Z,50.10
2023-04-12T19:28:19.339Z,56.90
2023-04-12T19:30:53.382Z,52.70
2023-04-12T19:33:27.399Z,51.83
2023-04-12T19:36:01.254Z,49.93
2023-04-12T19:38:36.815Z,48.17
2023-04-12T19:41:13.643Z,55.83
2023-04-12T19:43:48.616Z,45.97
2023-04-12T19:46:25.046Z,50.70
2023-04-12T19:49:00.267Z,49.57
2023-04-12T19:51:35.131Z,48.43
2023-04-12T19:54:11.952Z,47.47
2023-04-12T19:56:45.649Z,52.83
2023-04-12T19:59:19.492Z,55.30
2023-04-12T20:01:54.295Z,50.80
2023-04-12T20:04:31.252Z,60.40
2023-04-12T20:07:06.093Z,54.03
2023-04-12T20:09:42.403Z,50.80
2023-04-12T20:12:16.683Z,56.27
2023-04-12T20:14:51.275Z,53.17
2023-04-12T20:17:25.170Z,54.47
2023-04-12T20:19:59.913Z,57.77
2023-04-12T20:22:33.868Z,56.07
2023-04-12T20:25:11.513Z,56.73
2023-04-12T20:27:50.237Z,54.97
2023-04-12T20:30:24.926Z,54.67
2023-04-12T20:32:59.164Z,53.97
2023-04-12T20:35:33.488Z,53.97
2023-04-12T20:38:07.283Z,58.10
2023-04-12T20:40:43.216Z,53.10
2023-04-12T20:43:18.146Z,55.10
2023-04-12T20:45:54.827Z,53.87
2023-04-12T20:48:28.860Z,54.80
2023-04-12T20:51:05.869Z,57.50
2023-04-12T20:53:39.408Z,60.53
2023-04-12T20:56:18.338Z,63.27
2023-04-12T20:58:54.411Z,59.13
2023-04-12T21:01:28.324Z,59.23
2023-04-12T21:04:07.605Z,59.73
2023-04-12T21:06:42.071Z,60.03
2023-04-12T21:09:16.232Z,66.03
2023-04-12T21:11:54.798Z,62.17
2023-04-12T21:14:34.185Z,64.93
2023-04-12T21:17:08.414Z,65.70
2023-04-12T21:19:43.775Z,66.47
2023-04-12T21:22:19.852Z,65.23
2023-04-12T21:24:53.618Z,64.20
2023-04-12T21:27:29.213Z,62.57
2023-04-12T21:30:02.914Z,64.23
2023-04-12T21:32:36.411Z,64.83
2023-04-12T21:35:12.309Z,64.67
2023-04-12T21:37:46.544Z,63.27
2023-04-12T21:40:20.772Z,67.10
2023-04-12T21:42:57.031Z,67.47
2023-04-12T21:45:31.537Z,71.03
2023-04-12T21:48:04.706Z,64.00
2023-04-12T21:50:39.872Z,65.97
2023-04-12T21:53:13.247Z,65.27
2023-04-12T21:55:47.072Z,60.40
2023-04-12T21:58:22.753Z,63.17
2023-04-12T22:00:59.857Z,63.23
2023-04-12T22:03:34.206Z,69.43
2023-04-12T22:06:08.411Z,65.23
2023-04-12T22:08:45.589Z,63.43
2023-04-12T22:11:18.749Z,69.07
2023-04-12T22:13:58.677Z,67.67
2023-04-12T22:16:34.187Z,67.00
2023-04-12T22:19:09.187Z,63.27
2023-04-12T22:21:43.270Z,64.30
2023-04-12T22:24:17.810Z,70.67
2023-04-12T22:26:51.948Z,66.53
2023-04-12T22:29:28.654Z,67.20
2023-04-12T22:32:03.096Z,72.90
2023-04-12T22:34:38.991Z,70.77
2023-04-12T22:37:13.790Z,64.97
2023-04-12T22:39:52.786Z,61.63
2023-04-12T22:42:28.126Z,68.23
2023-04-12T22:45:04.190Z,63.20
2023-04-12T22:47:40.497Z,70.00
2023-04-12T22:50:14.694Z,67.83
2023-04-12T22:52:51.373Z,69.93
2023-04-12T22:55:25.312Z,65.93
2023-04-12T22:58:02.325Z,67.83
2023-04-12T23:00:38.571Z,67.83
2023-04-12T23:03:13.092Z,66.03
2023-04-12T23:05:47.230Z,70.07
2023-04-12T23:08:21.992Z,69.80
2023-04-12T23:11:04.218Z,63.57
2023-04-12T23:13:38.859Z,66.37
2023-04-12T23:16:14.979Z,63.83
2023-04-12T23:18:49.723Z,65.23
2023-04-12T23:21:31.323Z,63.30
2023-04-12T23:24:14.027Z,68.13
2023-04-12T23:26:50.931Z,71.33
2023-04-12T23:29:29.085Z,68.77
2023-04-12T23:32:05.857Z,61.33
2023-04-12T23:34:47.661Z,61.80
2023-04-12T23:37:28.738Z,66.20
2023-04-12T23:40:08.523Z,60.67
2023-04-12T23:42:47.256Z,61.03
2023-04-12T23:45:21.889Z,62.90
2023-04-12T23:47:57.725Z,61.43
2023-04-12T23:50:40.750Z,64.87
2023-04-12T23:53:23.957Z,62.87
2023-04-12T23:55:59.905Z,55.83
2023-04-12T23:58:33.540Z,68.40
